Nevisdale, Kentucky
Current Conditions -  °F | °C
As of 11:55 PM on Saturday 25 Oct 2014 (Local Time) from K1A6 Reporting Station
Haze Haze  
Wind Chill: 49°   Ceiling: Unl
Heat Index: 49°   Visibility: 3mi
Dew Point: 48°   Wind: 0mph
Humidity: 99%   Direction: NA
Pressure: 30.02"   Gusts: NA
Location:  36.69°N, 84.05°W
Report Text: K1A6 260355Z AUTO 00000KT 3SM BR CLR 09/09 A3002 RMK AO2 T00920090
Loading
Personal Weather Stations






























Interactive Weather Map
Tropical Storm Tracking
New forecast layout! Learn more

10-Day Weather Forecast

Advertisements
Track Severe Weather on mobile